Time;durP1;ratioP1;P1;durP2;ratioP2;P2;SDS_P1;SDS_P2;PMS_P1;PMS_P2;Temp;Humidity;BMP_temperature;BMP_pressure;BME280_temperature;BME280_humidity;BME280_pressure;Samples;Min_cycle;Max_cycle;Signal;HPM_P1;HPM_P2
2021/03/04 00:02:57;;;;;;;;;;;5.60;99.90;;;;;;6976378;28;20307;-66
2021/03/04 00:06:17;;;;;;;;;;;5.60;99.90;;;;;;6976469;28;19913;-67
2021/03/04 00:09:38;;;;;;;;;;;5.50;99.90;;;;;;6971048;28;20473;-68
2021/03/04 00:12:59;;;;;;;;;;;5.50;99.90;;;;;;6961944;28;19917;-68
2021/03/04 00:16:19;;;;;;;;;;;5.50;99.90;;;;;;6969023;28;19916;-67
2021/03/04 00:19:40;;;;;;;;;;;5.50;99.90;;;;;;6973090;28;19912;-67
2021/03/04 00:23:01;;;;;;;;;;;5.60;99.90;;;;;;6976347;28;19991;-67
2021/03/04 00:26:22;;;;;;;;;;;5.50;99.90;;;;;;6953504;28;19928;-67
2021/03/04 00:29:42;;;;;;;;;;;5.60;99.90;;;;;;6972021;28;19920;-67
2021/03/04 00:33:03;;;;;;;;;;;5.60;99.90;;;;;;6974585;28;19912;-68
2021/03/04 00:36:24;;;;;;;;;;;5.50;99.90;;;;;;6976289;28;20446;-68
2021/03/04 00:39:44;;;;;;;;;;;5.50;99.90;;;;;;6976816;28;19916;-66
2021/03/04 00:43:05;;;;;;;;;;;5.40;99.90;;;;;;6975849;28;19923;-67
2021/03/04 00:46:26;;;;;;;;;;;5.30;99.90;;;;;;6972167;28;19952;-68
2021/03/04 00:49:47;;;;;;;;;;;5.40;99.90;;;;;;6972665;28;19924;-66
2021/03/04 00:53:07;;;;;;;;;;;5.30;99.90;;;;;;6952066;28;19913;-66
2021/03/04 00:56:28;;;;;;;;;;;5.40;99.90;;;;;;6973808;28;19913;-68
2021/03/04 00:59:49;;;;;;;;;;;5.40;99.90;;;;;;6974742;28;19916;-67
2021/03/04 01:03:10;;;;;;;;;;;5.40;99.90;;;;;;6976119;28;20625;-67
2021/03/04 01:06:30;;;;;;;;;;;5.50;99.90;;;;;;6976753;28;19912;-67
2021/03/04 01:09:51;;;;;;;;;;;5.40;99.90;;;;;;6972223;28;19989;-68
2021/03/04 01:13:12;;;;;;;;;;;5.30;99.90;;;;;;6973664;28;20176;-68
2021/03/04 01:16:32;;;;;;;;;;;5.40;99.90;;;;;;6975262;28;19948;-67
2021/03/04 01:19:53;;;;;;;;;;;5.30;99.90;;;;;;6971084;28;19912;-68
2021/03/04 01:23:14;;;;;;;;;;;5.40;99.90;;;;;;6978435;28;19912;-66
2021/03/04 01:26:35;;;;;;;;;;;5.30;99.90;;;;;;6971949;28;20007;-68
2021/03/04 01:29:56;;;;;;;;;;;5.30;99.90;;;;;;6974690;28;19924;-67
2021/03/04 01:33:17;;;;;;;;;;;5.30;99.90;;;;;;6981868;28;19913;-67
2021/03/04 01:36:38;;;;;;;;;;;5.20;99.90;;;;;;6982258;28;19971;-67
2021/03/04 01:39:59;;;;;;;;;;;5.20;99.90;;;;;;6983602;28;19939;-67
2021/03/04 01:43:19;;;;;;;;;;;5.20;99.90;;;;;;6972008;28;19912;-68
2021/03/04 01:46:40;;;;;;;;;;;5.20;99.90;;;;;;6972395;28;19912;-68
2021/03/04 01:50:02;;;;;;;;;;;5.10;99.90;;;;;;6971647;28;19917;-68
2021/03/04 01:53:23;;;;;;;;;;;5.00;99.90;;;;;;6972533;28;19917;-67
2021/03/04 01:56:44;;;;;;;;;;;4.90;99.90;;;;;;6972117;28;19920;-67
2021/03/04 02:00:06;;;;;;;;;;;4.80;99.90;;;;;;6969394;28;19921;-67
2021/03/04 02:03:29;;;;;;;;;;;4.70;99.90;;;;;;6970926;28;19920;-68
2021/03/04 02:07:09;;;;;;;;;;;4.80;99.90;;;;;;6974307;28;19917;-67
2021/03/04 02:10:41;;;;;;;;;;;4.70;99.90;;;;;;6975569;28;19964;-67
2021/03/04 02:14:17;;;;;;;;;;;4.70;99.90;;;;;;6970476;28;19916;-67
2021/03/04 02:17:40;;;;;;;;;;;4.60;99.90;;;;;;6968789;28;19913;-65
2021/03/04 02:21:01;;;;;;;;;;;4.40;99.90;;;;;;6971532;28;19913;-68
2021/03/04 02:24:27;;;;;;;;;;;4.40;99.90;;;;;;6971033;28;19971;-67
2021/03/04 02:27:49;;;;;;;;;;;4.30;99.90;;;;;;6954062;28;19916;-67
2021/03/04 02:31:10;;;;;;;;;;;4.20;99.90;;;;;;6971337;28;20288;-67
2021/03/04 02:34:31;;;;;;;;;;;4.30;99.90;;;;;;6970970;28;20249;-68
2021/03/04 02:37:54;;;;;;;;;;;4.40;99.90;;;;;;6970914;28;19913;-68
2021/03/04 02:41:15;;;;;;;;;;;4.40;99.90;;;;;;6970818;28;19913;-67
2021/03/04 02:44:36;;;;;;;;;;;4.50;99.90;;;;;;6970489;28;19940;-67
2021/03/04 02:47:56;;;;;;;;;;;4.60;99.90;;;;;;6970811;28;19924;-66
2021/03/04 02:51:17;;;;;;;;;;;4.50;99.90;;;;;;6970193;28;20334;-67
2021/03/04 02:54:38;;;;;;;;;;;4.50;99.90;;;;;;6970463;28;20448;-68
2021/03/04 02:58:00;;;;;;;;;;;4.40;99.90;;;;;;6970842;28;19954;-67
2021/03/04 03:01:21;;;;;;;;;;;4.40;99.90;;;;;;6970461;28;19917;-67
2021/03/04 03:04:42;;;;;;;;;;;4.50;99.90;;;;;;6970472;28;19925;-68
2021/03/04 03:08:04;;;;;;;;;;;4.50;99.90;;;;;;6971074;28;20090;-67
2021/03/04 03:11:25;;;;;;;;;;;4.60;99.90;;;;;;6972734;28;19912;-68
2021/03/04 03:14:46;;;;;;;;;;;4.50;99.90;;;;;;6969570;28;19966;-67
2021/03/04 03:18:07;;;;;;;;;;;4.50;99.90;;;;;;6969939;28;19913;-68
2021/03/04 03:21:27;;;;;;;;;;;4.40;99.90;;;;;;6969748;28;19955;-67
2021/03/04 03:24:48;;;;;;;;;;;4.50;99.90;;;;;;6972096;28;19999;-67
2021/03/04 03:28:09;;;;;;;;;;;4.40;99.90;;;;;;6969889;28;19940;-68
2021/03/04 03:31:30;;;;;;;;;;;4.30;99.90;;;;;;6972617;28;19924;-68
2021/03/04 03:34:51;;;;;;;;;;;4.30;99.90;;;;;;6951884;28;19913;-67
2021/03/04 03:38:12;;;;;;;;;;;4.40;99.90;;;;;;6970201;28;20068;-68
2021/03/04 03:41:33;;;;;;;;;;;4.40;99.90;;;;;;6969428;28;20011;-66
2021/03/04 03:44:55;;;;;;;;;;;4.40;99.90;;;;;;6966976;28;20435;-66
2021/03/04 03:48:17;;;;;;;;;;;4.40;99.90;;;;;;6968325;28;19917;-67
2021/03/04 03:51:37;;;;;;;;;;;4.30;99.90;;;;;;6968707;28;20421;-66
2021/03/04 03:54:58;;;;;;;;;;;4.30;99.90;;;;;;6968384;28;19913;-68
2021/03/04 03:58:20;;;;;;;;;;;4.40;99.90;;;;;;6968959;28;20375;-68
2021/03/04 04:01:42;;;;;;;;;;;4.30;99.90;;;;;;6968177;28;19920;-67
2021/03/04 04:05:03;;;;;;;;;;;4.40;99.90;;;;;;6971290;28;20380;-68
2021/03/04 04:08:25;;;;;;;;;;;4.40;99.90;;;;;;6972243;28;19923;-67
2021/03/04 04:11:46;;;;;;;;;;;4.30;99.90;;;;;;6967911;28;20358;-67
2021/03/04 04:15:07;;;;;;;;;;;4.30;99.90;;;;;;6968503;28;20392;-68
2021/03/04 04:18:28;;;;;;;;;;;4.40;99.90;;;;;;6968053;28;20356;-67
2021/03/04 04:21:49;;;;;;;;;;;4.50;99.90;;;;;;6968159;28;19913;-68
2021/03/04 04:25:10;;;;;;;;;;;4.50;99.90;;;;;;6952731;28;19913;-67
2021/03/04 04:28:31;;;;;;;;;;;4.50;99.90;;;;;;6989138;28;20256;-67
2021/03/04 04:31:52;;;;;;;;;;;4.30;99.90;;;;;;6990157;28;19962;-67
2021/03/04 04:35:13;;;;;;;;;;;4.40;99.90;;;;;;6986110;28;19973;-67
2021/03/04 04:38:34;;;;;;;;;;;4.50;99.90;;;;;;6986572;28;19919;-67
2021/03/04 04:41:55;;;;;;;;;;;4.50;99.90;;;;;;6983584;28;19917;-67
2021/03/04 04:45:15;;;;;;;;;;;4.50;99.90;;;;;;6975806;28;20382;-68
2021/03/04 04:48:38;;;;;;;;;;;4.40;99.90;;;;;;6984476;28;19970;-67
2021/03/04 04:51:59;;;;;;;;;;;4.60;99.90;;;;;;6973177;28;20341;-67
2021/03/04 04:55:20;;;;;;;;;;;4.50;99.90;;;;;;6993199;28;19913;-68
2021/03/04 04:58:40;;;;;;;;;;;4.50;99.90;;;;;;6966838;28;20375;-68
2021/03/04 05:02:02;;;;;;;;;;;4.50;99.90;;;;;;6984627;28;20267;-67
2021/03/04 05:05:23;;;;;;;;;;;4.40;99.90;;;;;;6987137;28;19971;-67
2021/03/04 05:08:44;;;;;;;;;;;4.40;99.90;;;;;;6985628;28;19925;-67
2021/03/04 05:12:05;;;;;;;;;;;4.40;99.90;;;;;;6985396;28;19958;-68
2021/03/04 05:15:26;;;;;;;;;;;4.50;99.90;;;;;;6984638;28;19935;-67
2021/03/04 05:18:46;;;;;;;;;;;4.40;99.90;;;;;;6985192;28;19916;-67
2021/03/04 05:22:07;;;;;;;;;;;4.40;99.90;;;;;;6986421;28;20030;-67
2021/03/04 05:25:28;;;;;;;;;;;4.50;99.90;;;;;;6975528;28;19912;-68
2021/03/04 05:28:48;;;;;;;;;;;4.50;99.90;;;;;;6975182;28;20007;-67
2021/03/04 05:32:09;;;;;;;;;;;4.50;99.90;;;;;;6975851;28;19912;-69
2021/03/04 05:35:30;;;;;;;;;;;4.50;99.90;;;;;;6989275;28;19913;-66
2021/03/04 05:38:51;;;;;;;;;;;4.60;99.90;;;;;;6990471;28;19919;-68
2021/03/04 05:42:11;;;;;;;;;;;4.50;99.90;;;;;;6974619;28;19912;-67
2021/03/04 05:45:33;;;;;;;;;;;4.60;99.90;;;;;;6972632;28;20381;-67
2021/03/04 05:48:56;;;;;;;;;;;4.50;99.90;;;;;;6984589;28;20063;-67
2021/03/04 05:52:17;;;;;;;;;;;4.70;99.90;;;;;;6971824;28;19912;-67
2021/03/04 05:55:38;;;;;;;;;;;4.80;99.90;;;;;;6971715;28;19920;-68
2021/03/04 05:58:59;;;;;;;;;;;4.70;99.90;;;;;;6970943;28;20034;-68
2021/03/04 06:02:20;;;;;;;;;;;4.70;99.90;;;;;;6970294;28;20233;-68
2021/03/04 06:05:41;;;;;;;;;;;4.70;99.90;;;;;;6976359;28;19912;-67
2021/03/04 06:09:02;;;;;;;;;;;4.70;99.90;;;;;;6966857;28;19979;-66
2021/03/04 06:12:22;;;;;;;;;;;4.80;99.90;;;;;;6985890;28;19963;-66
2021/03/04 06:15:44;;;;;;;;;;;4.70;99.90;;;;;;6971040;28;19966;-67
2021/03/04 06:19:04;;;;;;;;;;;4.70;99.90;;;;;;6988110;28;19913;-66
2021/03/04 06:22:26;;;;;;;;;;;4.70;99.90;;;;;;6969823;28;19912;-67
2021/03/04 06:25:48;;;;;;;;;;;4.80;99.90;;;;;;6969428;28;20347;-68
2021/03/04 06:29:11;;;;;;;;;;;4.80;99.90;;;;;;6969076;28;19924;-68
2021/03/04 06:32:32;;;;;;;;;;;4.90;99.90;;;;;;6968966;28;19921;-67
2021/03/04 06:36:13;;;;;;;;;;;4.80;99.90;;;;;;6975809;28;19917;-68
2021/03/04 06:39:39;;;;;;;;;;;4.80;99.90;;;;;;6975044;28;19958;-67
2021/03/04 06:43:00;;;;;;;;;;;4.70;99.90;;;;;;6965773;28;19916;-67
2021/03/04 06:46:21;;;;;;;;;;;4.80;99.90;;;;;;6967358;28;19913;-68
2021/03/04 06:49:42;;;;;;;;;;;4.80;99.90;;;;;;6973794;28;20019;-68
2021/03/04 06:53:18;;;;;;;;;;;4.90;99.90;;;;;;6967611;28;20287;-68
2021/03/04 06:56:38;;;;;;;;;;;4.80;99.90;;;;;;6970524;28;20375;-67
2021/03/04 06:59:59;;;;;;;;;;;4.90;99.90;;;;;;6923148;28;1234122;-68
2021/03/04 07:03:20;;;;;;;;;;;4.80;99.90;;;;;;6968562;28;19935;-68
2021/03/04 07:06:44;;;;;;;;;;;4.90;99.90;;;;;;6969091;28;19913;-68
2021/03/04 07:10:05;;;;;;;;;;;5.00;99.90;;;;;;6972770;28;19923;-66
2021/03/04 07:13:26;;;;;;;;;;;5.00;99.90;;;;;;6972690;28;19917;-68
2021/03/04 07:16:47;;;;;;;;;;;5.00;99.90;;;;;;6971521;28;20292;-68
2021/03/04 07:20:11;;;;;;;;;;;5.10;99.90;;;;;;6970683;28;19924;-67
2021/03/04 07:23:34;;;;;;;;;;;5.20;99.90;;;;;;6958919;28;19923;-67
2021/03/04 07:26:56;;;;;;;;;;;5.30;99.90;;;;;;6971566;28;20392;-67
2021/03/04 07:30:17;;;;;;;;;;;5.30;99.90;;;;;;6967720;28;19916;-68
2021/03/04 07:33:41;;;;;;;;;;;5.30;99.90;;;;;;6971644;28;19920;-67
2021/03/04 07:37:03;;;;;;;;;;;5.30;99.90;;;;;;6969096;28;19917;-67
2021/03/04 07:40:23;;;;;;;;;;;5.30;99.90;;;;;;6971328;28;19924;-67
2021/03/04 07:43:44;;;;;;;;;;;5.40;99.90;;;;;;6981234;28;20053;-68
2021/03/04 07:47:07;;;;;;;;;;;5.30;99.90;;;;;;6983403;28;19935;-68
2021/03/04 07:50:28;;;;;;;;;;;5.40;99.90;;;;;;6986718;28;20276;-66
2021/03/04 07:53:51;;;;;;;;;;;5.50;99.90;;;;;;6985715;28;19919;-66
2021/03/04 07:57:13;;;;;;;;;;;5.50;99.90;;;;;;6986122;28;19936;-68
2021/03/04 08:00:34;;;;;;;;;;;5.40;99.90;;;;;;6986475;28;19920;-66
2021/03/04 08:03:54;;;;;;;;;;;5.50;99.90;;;;;;6967683;28;19916;-66
2021/03/04 08:07:27;;;;;;;;;;;5.40;99.90;;;;;;6966065;28;20009;-67
2021/03/04 08:10:53;;;;;;;;;;;5.50;99.90;;;;;;6968760;28;19956;-66
2021/03/04 08:14:15;;;;;;;;;;;5.60;99.90;;;;;;6955807;28;19916;-66
2021/03/04 08:17:36;;;;;;;;;;;5.60;99.90;;;;;;6965853;28;19938;-66
2021/03/04 08:21:04;;;;;;;;;;;5.60;99.90;;;;;;6968262;28;19921;-67
2021/03/04 08:24:25;;;;;;;;;;;5.60;99.90;;;;;;6963906;28;19916;-68
2021/03/04 08:27:46;;;;;;;;;;;5.60;99.90;;;;;;6965824;28;20362;-66
2021/03/04 08:31:07;;;;;;;;;;;5.60;99.90;;;;;;6966193;28;19948;-66
2021/03/04 08:34:34;;;;;;;;;;;5.70;99.90;;;;;;6971261;28;19932;-67
2021/03/04 08:37:55;;;;;;;;;;;5.60;99.90;;;;;;6966276;28;20568;-66
2021/03/04 08:41:20;;;;;;;;;;;5.70;99.90;;;;;;6965231;28;19913;-66
2021/03/04 08:44:48;;;;;;;;;;;5.80;99.90;;;;;;6963295;28;19971;-66
2021/03/04 08:48:09;;;;;;;;;;;5.80;99.90;;;;;;6965969;28;19921;-65
2021/03/04 08:51:30;;;;;;;;;;;5.70;99.90;;;;;;6969377;28;19912;-67
2021/03/04 08:54:51;;;;;;;;;;;5.60;99.90;;;;;;6965625;28;19920;-66
2021/03/04 08:58:12;;;;;;;;;;;5.70;99.90;;;;;;6964315;28;19916;-67
2021/03/04 09:01:33;;;;;;;;;;;5.90;99.90;;;;;;6946691;28;19967;-66
2021/03/04 09:04:53;;;;;;;;;;;5.80;99.90;;;;;;6965048;28;19916;-66
2021/03/04 09:08:15;;;;;;;;;;;5.90;99.90;;;;;;6967811;28;19962;-65
2021/03/04 09:11:36;;;;;;;;;;;5.90;99.90;;;;;;6965939;28;19919;-65
2021/03/04 09:14:57;;;;;;;;;;;6.00;99.90;;;;;;6967965;28;20758;-66
2021/03/04 09:18:19;;;;;;;;;;;6.10;99.90;;;;;;6964856;28;19916;-67
2021/03/04 09:21:41;;;;;;;;;;;6.10;99.90;;;;;;6962197;28;19916;-65
2021/03/04 09:25:02;;;;;;;;;;;6.10;99.90;;;;;;6971355;28;19974;-66
2021/03/04 09:28:23;;;;;;;;;;;6.20;99.90;;;;;;6965093;28;19920;-66
2021/03/04 09:31:53;;;;;;;;;;;6.30;99.90;;;;;;6964839;28;20364;-67
2021/03/04 09:35:14;;;;;;;;;;;6.30;99.90;;;;;;6964265;28;19920;-66
2021/03/04 09:38:36;;;;;;;;;;;6.20;99.90;;;;;;6965176;28;19913;-65
2021/03/04 09:41:57;;;;;;;;;;;6.10;99.90;;;;;;6962921;28;19972;-67
2021/03/04 09:45:18;;;;;;;;;;;6.20;99.90;;;;;;6961831;28;20261;-67
2021/03/04 09:48:39;;;;;;;;;;;6.40;99.90;;;;;;6966021;28;19924;-65
2021/03/04 09:52:00;;;;;;;;;;;6.50;99.90;;;;;;6973843;28;20403;-66
2021/03/04 09:55:21;;;;;;;;;;;6.60;99.90;;;;;;6971452;28;20012;-65
2021/03/04 09:58:42;;;;;;;;;;;6.50;99.90;;;;;;6971652;28;19927;-65
2021/03/04 10:02:03;;;;;;;;;;;6.50;99.90;;;;;;6971250;28;19974;-68
2021/03/04 10:05:25;;;;;;;;;;;6.70;99.90;;;;;;6971645;28;20426;-65
2021/03/04 10:08:51;;;;;;;;;;;6.50;99.90;;;;;;6974555;28;20307;-66
2021/03/04 10:12:12;;;;;;;;;;;6.50;99.90;;;;;;6972100;28;19923;-65
2021/03/04 10:15:33;;;;;;;;;;;6.40;99.90;;;;;;6973776;28;20015;-65
2021/03/04 10:18:54;;;;;;;;;;;6.50;99.90;;;;;;6971053;28;19939;-66
2021/03/04 10:22:15;;;;;;;;;;;6.60;99.90;;;;;;6970096;28;19913;-66
2021/03/04 10:25:36;;;;;;;;;;;6.70;99.90;;;;;;6970123;28;19965;-66
2021/03/04 10:28:56;;;;;;;;;;;6.80;99.90;;;;;;6970614;28;20252;-65
2021/03/04 10:32:17;;;;;;;;;;;6.80;99.90;;;;;;6967726;28;20419;-68
2021/03/04 10:35:38;;;;;;;;;;;6.80;99.90;;;;;;6967643;28;20382;-65
2021/03/04 10:38:59;;;;;;;;;;;7.00;99.90;;;;;;6965653;28;19913;-65
2021/03/04 10:42:19;;;;;;;;;;;7.10;99.90;;;;;;6970265;28;20257;-67
2021/03/04 10:45:40;;;;;;;;;;;7.10;99.90;;;;;;6969875;28;19924;-66
2021/03/04 10:49:01;;;;;;;;;;;7.20;99.90;;;;;;6972662;28;19963;-65
2021/03/04 10:52:22;;;;;;;;;;;7.20;99.90;;;;;;6969551;28;20299;-66
2021/03/04 10:55:42;;;;;;;;;;;7.30;99.90;;;;;;6966794;28;19939;-66
2021/03/04 10:59:03;;;;;;;;;;;7.40;99.90;;;;;;6966889;28;20583;-66
2021/03/04 11:02:24;;;;;;;;;;;7.40;99.90;;;;;;6967456;28;19948;-68
2021/03/04 11:05:44;;;;;;;;;;;7.40;99.90;;;;;;6968502;28;19955;-67
2021/03/04 11:09:05;;;;;;;;;;;7.50;99.90;;;;;;6972863;28;19943;-67
2021/03/04 11:12:26;;;;;;;;;;;7.60;99.90;;;;;;6982636;28;19913;-67
2021/03/04 11:15:47;;;;;;;;;;;7.70;99.90;;;;;;6971082;28;20011;-68
2021/03/04 11:19:09;;;;;;;;;;;7.80;99.90;;;;;;6973094;28;19917;-67
2021/03/04 11:22:30;;;;;;;;;;;7.80;99.90;;;;;;6986962;28;20445;-67
2021/03/04 11:25:50;;;;;;;;;;;7.80;99.90;;;;;;6973557;28;19917;-67
2021/03/04 11:29:11;;;;;;;;;;;7.80;99.90;;;;;;6967663;28;20315;-67
2021/03/04 11:32:32;;;;;;;;;;;7.80;99.90;;;;;;6967467;28;19917;-66
2021/03/04 11:35:53;;;;;;;;;;;7.80;99.90;;;;;;6971252;28;20360;-65
2021/03/04 11:39:13;;;;;;;;;;;7.80;99.90;;;;;;6968969;28;20015;-67
2021/03/04 11:42:34;;;;;;;;;;;7.80;99.90;;;;;;6968686;28;19983;-67
2021/03/04 11:45:54;;;;;;;;;;;7.90;99.90;;;;;;6977585;28;19923;-66
2021/03/04 11:49:15;;;;;;;;;;;8.20;99.90;;;;;;6988156;28;19943;-67
2021/03/04 11:52:36;;;;;;;;;;;8.40;99.90;;;;;;6985366;28;19945;-67
2021/03/04 11:55:57;;;;;;;;;;;8.60;99.90;;;;;;6984618;28;19921;-66
2021/03/04 11:59:17;;;;;;;;;;;8.70;99.90;;;;;;6988164;28;20013;-66
2021/03/04 12:02:38;;;;;;;;;;;8.60;99.90;;;;;;6958910;28;19921;-67
2021/03/04 12:05:59;;;;;;;;;;;8.60;99.90;;;;;;6976207;28;19966;-66
2021/03/04 12:09:20;;;;;;;;;;;8.60;99.90;;;;;;6974524;28;19924;-67
2021/03/04 12:12:41;;;;;;;;;;;8.60;99.90;;;;;;6966336;28;20008;-67
2021/03/04 12:16:04;;;;;;;;;;;8.50;99.90;;;;;;6973345;28;20665;-67
2021/03/04 12:19:25;;;;;;;;;;;8.60;99.90;;;;;;6972751;28;20296;-66
2021/03/04 12:22:46;;;;;;;;;;;8.70;99.90;;;;;;6966231;28;20020;-66
2021/03/04 12:26:07;;;;;;;;;;;8.70;99.90;;;;;;6971574;28;19970;-67
2021/03/04 12:29:27;;;;;;;;;;;8.60;99.90;;;;;;6970830;28;19917;-66
2021/03/04 12:32:48;;;;;;;;;;;8.70;99.90;;;;;;6965813;28;19917;-65
2021/03/04 12:36:09;;;;;;;;;;;8.60;99.90;;;;;;6965608;28;19917;-67
2021/03/04 12:39:29;;;;;;;;;;;8.50;99.90;;;;;;6965183;28;19912;-66
2021/03/04 12:42:50;;;;;;;;;;;8.50;99.90;;;;;;6965651;28;19926;-69
2021/03/04 12:46:11;;;;;;;;;;;8.50;99.90;;;;;;6962339;28;20007;-66
2021/03/04 12:49:32;;;;;;;;;;;8.40;99.90;;;;;;6965157;28;19942;-65
2021/03/04 12:52:52;;;;;;;;;;;8.40;99.90;;;;;;6963987;28;19920;-69
2021/03/04 12:56:13;;;;;;;;;;;8.30;99.90;;;;;;6964886;28;19912;-65
2021/03/04 12:59:34;;;;;;;;;;;8.30;99.90;;;;;;6964694;28;19917;-65
2021/03/04 13:02:54;;;;;;;;;;;8.10;99.90;;;;;;6965081;28;19966;-65
2021/03/04 13:06:15;;;;;;;;;;;8.10;99.90;;;;;;6966172;28;20547;-65
2021/03/04 13:09:36;;;;;;;;;;;8.20;99.90;;;;;;6968570;28;20371;-65
2021/03/04 13:12:57;;;;;;;;;;;8.10;99.90;;;;;;6957175;28;19928;-66
2021/03/04 13:16:18;;;;;;;;;;;8.10;99.90;;;;;;6965481;28;19940;-67
2021/03/04 13:19:38;;;;;;;;;;;8.10;99.90;;;;;;6964988;28;20308;-68
2021/03/04 13:22:59;;;;;;;;;;;8.10;99.90;;;;;;6967655;28;19964;-65
2021/03/04 13:26:20;;;;;;;;;;;8.10;99.90;;;;;;6965357;28;19920;-65
2021/03/04 13:29:41;;;;;;;;;;;8.10;99.90;;;;;;6971312;28;19917;-67
2021/03/04 13:33:01;;;;;;;;;;;8.10;99.90;;;;;;6969911;28;19932;-66
2021/03/04 13:36:22;;;;;;;;;;;8.20;99.90;;;;;;6973002;28;20292;-65
2021/03/04 13:39:43;;;;;;;;;;;8.30;99.90;;;;;;6970398;28;19956;-65
2021/03/04 13:43:03;;;;;;;;;;;8.30;99.90;;;;;;6969866;28;19913;-66
2021/03/04 13:46:24;;;;;;;;;;;8.30;99.90;;;;;;6970487;28;19912;-65
2021/03/04 13:49:44;;;;;;;;;;;8.30;99.90;;;;;;6969382;28;20368;-65
2021/03/04 13:53:05;;;;;;;;;;;8.30;99.90;;;;;;6969748;28;19913;-65
2021/03/04 13:56:26;;;;;;;;;;;8.30;99.90;;;;;;6973231;28;19913;-66
2021/03/04 13:59:47;;;;;;;;;;;8.40;99.90;;;;;;6968703;28;19960;-66
2021/03/04 14:03:08;;;;;;;;;;;8.30;99.90;;;;;;6969638;28;20463;-66
2021/03/04 14:06:29;;;;;;;;;;;8.30;99.90;;;;;;6966921;28;20268;-65
2021/03/04 14:09:50;;;;;;;;;;;8.30;99.90;;;;;;6979478;28;20070;-68
2021/03/04 14:13:11;;;;;;;;;;;8.30;99.90;;;;;;6990752;28;19913;-67
2021/03/04 14:16:32;;;;;;;;;;;8.30;99.90;;;;;;6990724;28;20219;-66
2021/03/04 14:19:53;;;;;;;;;;;8.30;99.90;;;;;;6983854;28;19916;-67
2021/03/04 14:23:15;;;;;;;;;;;8.30;99.90;;;;;;6989191;28;20291;-66
2021/03/04 14:26:37;;;;;;;;;;;8.30;99.90;;;;;;6992766;28;19995;-67
2021/03/04 14:29:58;;;;;;;;;;;8.30;99.90;;;;;;6991741;28;19927;-66
2021/03/04 14:33:19;;;;;;;;;;;8.30;99.90;;;;;;6968121;28;19913;-67
2021/03/04 14:36:41;;;;;;;;;;;8.30;99.90;;;;;;6969185;28;19944;-66
2021/03/04 14:40:04;;;;;;;;;;;8.20;99.90;;;;;;6968158;28;19917;-66
2021/03/04 14:43:25;;;;;;;;;;;8.20;99.90;;;;;;6968963;28;19924;-68
2021/03/04 14:46:46;;;;;;;;;;;8.10;99.90;;;;;;6968543;28;19913;-66
2021/03/04 14:50:06;;;;;;;;;;;7.90;99.90;;;;;;6967555;28;19956;-66
2021/03/04 14:53:27;;;;;;;;;;;7.70;99.90;;;;;;6967441;28;20094;-66
2021/03/04 14:56:51;;;;;;;;;;;7.60;99.90;;;;;;6968764;28;19925;-67
2021/03/04 15:00:13;;;;;;;;;;;7.50;99.90;;;;;;6967503;28;19970;-65
2021/03/04 15:03:37;;;;;;;;;;;7.50;99.90;;;;;;6971196;28;19912;-66
2021/03/04 15:06:58;;;;;;;;;;;7.50;99.90;;;;;;6966257;28;19963;-67
2021/03/04 15:10:19;;;;;;;;;;;7.40;99.90;;;;;;6983102;28;19924;-67
2021/03/04 15:13:39;;;;;;;;;;;7.40;99.90;;;;;;6990140;28;20121;-66
2021/03/04 15:17:00;;;;;;;;;;;7.40;99.90;;;;;;6988996;28;19987;-68
2021/03/04 15:20:21;;;;;;;;;;;7.20;99.90;;;;;;6987482;28;19920;-67
2021/03/04 15:23:42;;;;;;;;;;;7.30;99.90;;;;;;6969246;28;20406;-66
2021/03/04 15:27:03;;;;;;;;;;;7.20;99.90;;;;;;6960382;28;19917;-68
2021/03/04 15:30:24;;;;;;;;;;;7.20;99.90;;;;;;6988573;28;20074;-65
2021/03/04 15:33:45;;;;;;;;;;;7.10;99.90;;;;;;6986582;28;19913;-66
2021/03/04 15:37:06;;;;;;;;;;;7.10;99.90;;;;;;6986594;28;19967;-66
2021/03/04 15:40:30;;;;;;;;;;;7.10;99.90;;;;;;6971653;28;19948;-67
2021/03/04 15:43:50;;;;;;;;;;;6.90;99.90;;;;;;6986536;28;19912;-68
2021/03/04 15:47:11;;;;;;;;;;;6.80;99.90;;;;;;6986155;28;19917;-68
2021/03/04 15:50:32;;;;;;;;;;;6.60;99.90;;;;;;6985734;28;19975;-68
2021/03/04 15:53:55;;;;;;;;;;;6.50;99.90;;;;;;6968437;28;19916;-68
2021/03/04 15:57:16;;;;;;;;;;;6.40;99.90;;;;;;6971093;28;20443;-68
2021/03/04 16:00:37;;;;;;;;;;;6.40;99.90;;;;;;6967119;28;19916;-67
2021/03/04 16:03:58;;;;;;;;;;;6.30;99.90;;;;;;6955819;28;19913;-68
2021/03/04 16:07:19;;;;;;;;;;;6.30;99.90;;;;;;6963637;28;19912;-68
2021/03/04 16:10:42;;;;;;;;;;;6.30;99.90;;;;;;6965967;28;19917;-68
2021/03/04 16:14:03;;;;;;;;;;;6.20;99.90;;;;;;6946755;28;19913;-69
2021/03/04 16:17:24;;;;;;;;;;;6.20;99.90;;;;;;6966646;28;19939;-69
2021/03/04 16:20:45;;;;;;;;;;;6.20;99.90;;;;;;6964810;28;19916;-68
2021/03/04 16:24:07;;;;;;;;;;;6.10;99.90;;;;;;6947216;28;19916;-67
2021/03/04 16:27:29;;;;;;;;;;;6.00;99.90;;;;;;6957781;28;19952;-68
2021/03/04 16:30:49;;;;;;;;;;;5.90;99.90;;;;;;6965575;28;19923;-68
2021/03/04 16:34:13;;;;;;;;;;;5.90;99.90;;;;;;6962927;28;19912;-67
2021/03/04 16:37:35;;;;;;;;;;;5.70;99.90;;;;;;6949437;28;19971;-68
2021/03/04 16:40:57;;;;;;;;;;;5.70;99.90;;;;;;6946712;28;20283;-69
2021/03/04 16:44:18;;;;;;;;;;;5.70;99.90;;;;;;6947970;28;20421;-68
2021/03/04 16:47:40;;;;;;;;;;;5.60;99.90;;;;;;6943147;28;19917;-66
2021/03/04 16:51:03;;;;;;;;;;;5.60;99.90;;;;;;6955275;28;19952;-69
2021/03/04 16:54:24;;;;;;;;;;;5.50;99.90;;;;;;6947113;28;20276;-67
2021/03/04 16:57:45;;;;;;;;;;;5.50;99.90;;;;;;6965790;28;20378;-66
2021/03/04 17:01:11;;;;;;;;;;;5.50;99.90;;;;;;6944221;28;19936;-68
2021/03/04 17:04:33;;;;;;;;;;;5.60;99.90;;;;;;6974172;28;19912;-68
2021/03/04 17:07:54;;;;;;;;;;;5.60;99.90;;;;;;6980673;28;19916;-68
2021/03/04 17:11:15;;;;;;;;;;;5.50;99.90;;;;;;6975369;28;19970;-69
2021/03/04 17:14:35;;;;;;;;;;;5.50;99.90;;;;;;6971671;28;19943;-69
2021/03/04 17:17:56;;;;;;;;;;;5.40;99.90;;;;;;6970043;28;20015;-67
2021/03/04 17:21:16;;;;;;;;;;;5.40;99.90;;;;;;6986628;28;19916;-68
2021/03/04 17:24:37;;;;;;;;;;;5.30;99.90;;;;;;6971783;28;19970;-68
2021/03/04 17:27:58;;;;;;;;;;;5.30;99.90;;;;;;6987865;28;20006;-68
2021/03/04 17:31:19;;;;;;;;;;;5.30;99.90;;;;;;6979457;28;19943;-67
2021/03/04 17:34:40;;;;;;;;;;;5.30;99.90;;;;;;6974498;28;19917;-65
2021/03/04 17:38:00;;;;;;;;;;;5.30;99.90;;;;;;6971133;28;20287;-65
2021/03/04 17:41:21;;;;;;;;;;;5.30;99.90;;;;;;6969973;28;19921;-67
2021/03/04 17:44:42;;;;;;;;;;;5.20;99.90;;;;;;6969991;28;19920;-68
2021/03/04 17:48:03;;;;;;;;;;;5.30;99.90;;;;;;6970546;28;19927;-68
2021/03/04 17:51:24;;;;;;;;;;;5.20;99.90;;;;;;6951488;28;19959;-67
2021/03/04 17:54:44;;;;;;;;;;;5.20;99.90;;;;;;6970054;28;19921;-67
2021/03/04 17:58:05;;;;;;;;;;;5.20;99.90;;;;;;6972855;28;19912;-67
2021/03/04 18:01:27;;;;;;;;;;;5.20;99.90;;;;;;6969301;28;19917;-68
2021/03/04 18:04:47;;;;;;;;;;;5.20;99.90;;;;;;6969868;28;19917;-66
2021/03/04 18:08:08;;;;;;;;;;;5.20;99.90;;;;;;6977518;28;20283;-68
2021/03/04 18:11:29;;;;;;;;;;;5.20;99.90;;;;;;6967325;28;20000;-68
2021/03/04 18:14:50;;;;;;;;;;;5.20;99.90;;;;;;6968825;28;20038;-67
2021/03/04 18:18:10;;;;;;;;;;;5.20;99.90;;;;;;6969481;28;19917;-68
2021/03/04 18:21:31;;;;;;;;;;;5.20;99.90;;;;;;6970445;28;19913;-67
2021/03/04 18:24:52;;;;;;;;;;;5.20;99.90;;;;;;6978160;28;20432;-68
2021/03/04 18:28:13;;;;;;;;;;;5.30;99.90;;;;;;6969370;28;19917;-68
2021/03/04 18:31:34;;;;;;;;;;;5.20;99.90;;;;;;6970783;28;19913;-68
2021/03/04 18:34:55;;;;;;;;;;;5.10;99.90;;;;;;6974884;28;19952;-67
2021/03/04 18:38:15;;;;;;;;;;;5.10;99.90;;;;;;6974397;28;19913;-68
2021/03/04 18:41:36;;;;;;;;;;;5.10;99.90;;;;;;6968343;28;19921;-68
2021/03/04 18:44:57;;;;;;;;;;;5.10;99.90;;;;;;6968768;28;19979;-66
2021/03/04 18:48:17;;;;;;;;;;;5.10;99.90;;;;;;6969338;28;19956;-68
2021/03/04 18:51:38;;;;;;;;;;;5.10;99.90;;;;;;6973322;28;19913;-68
2021/03/04 18:54:59;;;;;;;;;;;5.20;99.90;;;;;;6969611;28;19917;-65
2021/03/04 18:58:20;;;;;;;;;;;5.10;99.90;;;;;;6969564;28;20035;-68
2021/03/04 19:01:41;;;;;;;;;;;5.20;99.90;;;;;;6967651;28;20436;-68
2021/03/04 19:05:02;;;;;;;;;;;5.20;99.90;;;;;;6974383;28;19924;-67
2021/03/04 19:08:23;;;;;;;;;;;5.20;99.90;;;;;;6982994;28;19969;-69
2021/03/04 19:11:44;;;;;;;;;;;5.20;99.90;;;;;;6984334;28;19924;-67
2021/03/04 19:15:05;;;;;;;;;;;5.20;99.90;;;;;;6980353;28;19928;-68
2021/03/04 19:18:26;;;;;;;;;;;5.20;99.90;;;;;;6986075;28;19927;-68
2021/03/04 19:21:47;;;;;;;;;;;5.30;99.90;;;;;;6982951;28;20019;-67
2021/03/04 19:25:08;;;;;;;;;;;5.20;99.90;;;;;;6983956;28;19912;-67
2021/03/04 19:28:29;;;;;;;;;;;5.20;99.90;;;;;;6989162;28;19917;-68
2021/03/04 19:31:50;;;;;;;;;;;5.20;99.90;;;;;;6981365;28;20004;-68
2021/03/04 19:35:10;;;;;;;;;;;5.20;99.90;;;;;;6971064;28;19944;-67
2021/03/04 19:38:31;;;;;;;;;;;5.30;99.90;;;;;;6968321;28;20736;-67
2021/03/04 19:41:52;;;;;;;;;;;5.30;99.90;;;;;;6970450;28;19913;-67
2021/03/04 19:45:13;;;;;;;;;;;5.30;99.90;;;;;;6967683;28;19917;-66
2021/03/04 19:48:33;;;;;;;;;;;5.30;99.90;;;;;;6971699;28;19999;-67
2021/03/04 19:51:54;;;;;;;;;;;5.30;99.90;;;;;;6966797;28;19923;-68